createdAt,value
2018-07-08T00:01:34.829Z,8.60
2018-07-08T00:04:03.509Z,9.73
2018-07-08T00:06:32.098Z,9.83
2018-07-08T00:09:00.641Z,15.30
2018-07-08T00:11:29.280Z,9.80
2018-07-08T00:13:57.944Z,9.50
2018-07-08T00:16:27.761Z,10.20
2018-07-08T00:18:56.912Z,10.93
2018-07-08T00:21:25.508Z,11.70
2018-07-08T00:23:53.968Z,12.50
2018-07-08T00:26:22.701Z,14.10
2018-07-08T00:28:51.204Z,10.93
2018-07-08T00:31:19.677Z,19.33
2018-07-08T00:33:47.852Z,10.40
2018-07-08T00:36:16.345Z,10.33
2018-07-08T00:38:44.833Z,11.63
2018-07-08T00:41:13.300Z,11.13
2018-07-08T00:43:41.802Z,10.20
2018-07-08T00:46:10.249Z,10.33
2018-07-08T00:48:38.760Z,12.30
2018-07-08T00:51:07.369Z,8.73
2018-07-08T00:53:35.880Z,13.23
2018-07-08T00:56:04.421Z,12.63
2018-07-08T00:58:32.909Z,13.60
2018-07-08T01:01:01.437Z,9.50
2018-07-08T01:03:29.940Z,10.53
2018-07-08T01:05:58.401Z,11.80
2018-07-08T01:08:26.951Z,11.40
2018-07-08T01:10:55.462Z,9.77
2018-07-08T01:13:24.079Z,10.63
2018-07-08T01:15:52.584Z,13.97
2018-07-08T01:18:21.073Z,10.93
2018-07-08T01:20:49.548Z,18.23
2018-07-08T01:23:18.904Z,10.83
2018-07-08T01:25:58.680Z,11.00
2018-07-08T01:28:26.856Z,13.43
2018-07-08T01:30:55.341Z,11.27
2018-07-08T01:33:23.913Z,11.47
2018-07-08T01:35:52.361Z,11.33
2018-07-08T01:38:20.864Z,9.80
2018-07-08T01:40:49.328Z,8.87
2018-07-08T01:43:17.933Z,12.90
2018-07-08T01:45:46.444Z,17.13
2018-07-08T01:48:14.949Z,10.80
2018-07-08T01:50:43.417Z,10.57
2018-07-08T01:53:11.993Z,10.90
2018-07-08T01:55:40.461Z,15.83
2018-07-08T01:58:08.929Z,10.83
2018-07-08T02:00:37.512Z,11.70
2018-07-08T02:03:06.385Z,11.60
2018-07-08T02:05:35.045Z,11.47
2018-07-08T02:08:03.585Z,10.33
2018-07-08T02:10:32.102Z,12.70
2018-07-08T02:13:00.615Z,11.20
2018-07-08T02:15:29.621Z,13.20
2018-07-08T02:17:58.349Z,13.83
2018-07-08T02:20:27.133Z,13.93
2018-07-08T02:22:55.784Z,14.37
2018-07-08T02:25:24.242Z,12.67
2018-07-08T02:27:52.741Z,12.30
2018-07-08T02:30:21.314Z,10.13
2018-07-08T02:32:49.761Z,10.33
2018-07-08T02:35:18.257Z,12.43
2018-07-08T02:37:46.902Z,11.13
2018-07-08T02:40:15.507Z,9.43
2018-07-08T02:42:44.132Z,13.10
2018-07-08T02:45:12.658Z,18.60
2018-07-08T02:47:41.173Z,15.30
2018-07-08T02:50:09.605Z,11.17
2018-07-08T02:52:38.231Z,10.70
2018-07-08T02:55:06.777Z,11.80
2018-07-08T02:57:35.220Z,11.23
2018-07-08T03:00:03.851Z,12.13
2018-07-08T03:02:32.333Z,16.47
2018-07-08T03:05:00.849Z,14.33
2018-07-08T03:07:29.316Z,11.43
2018-07-08T03:09:57.574Z,12.70
2018-07-08T03:12:26.049Z,20.53
2018-07-08T03:14:54.612Z,20.03
2018-07-08T03:17:23.073Z,19.33
2018-07-08T03:19:51.565Z,16.93
2018-07-08T03:22:20.105Z,14.57
2018-07-08T03:24:48.568Z,13.50
2018-07-08T03:27:17.008Z,13.40
2018-07-08T03:29:45.465Z,12.53
2018-07-08T03:32:13.997Z,11.93
2018-07-08T03:34:42.457Z,14.27
2018-07-08T03:37:11.013Z,15.17
2018-07-08T03:39:39.492Z,12.53
2018-07-08T03:42:07.932Z,13.87
2018-07-08T03:44:36.401Z,13.17
2018-07-08T03:47:04.909Z,14.70
2018-07-08T03:49:33.560Z,11.53
2018-07-08T03:52:02.063Z,13.13
2018-07-08T03:54:32.680Z,12.73
2018-07-08T03:57:01.161Z,17.33
2018-07-08T03:59:29.631Z,15.30
2018-07-08T04:01:58.236Z,11.80
2018-07-08T04:04:26.689Z,12.17
2018-07-08T04:06:56.133Z,12.43
2018-07-08T04:09:25.608Z,14.80
2018-07-08T04:11:54.131Z,11.80
2018-07-08T04:14:22.705Z,11.93
2018-07-08T04:16:51.138Z,11.70
2018-07-08T04:19:19.605Z,14.03
2018-07-08T04:21:48.598Z,15.30
2018-07-08T04:24:17.225Z,12.63
2018-07-08T04:26:45.700Z,14.87
2018-07-08T04:29:14.173Z,13.73
2018-07-08T04:31:42.646Z,12.37
2018-07-08T04:34:11.182Z,15.17
2018-07-08T04:36:39.642Z,14.63
2018-07-08T04:39:09.060Z,20.23
2018-07-08T04:41:37.517Z,12.40
2018-07-08T04:44:06.145Z,21.40
2018-07-08T04:46:34.634Z,10.60
2018-07-08T04:49:03.241Z,12.63
2018-07-08T04:51:31.778Z,15.97
2018-07-08T04:54:00.243Z,12.07
2018-07-08T04:56:28.821Z,16.60
2018-07-08T04:58:57.285Z,15.20
2018-07-08T05:01:25.794Z,15.50
2018-07-08T05:03:54.260Z,13.70
2018-07-08T05:06:22.760Z,12.80
2018-07-08T05:08:51.165Z,11.43
2018-07-08T05:11:19.637Z,10.60
2018-07-08T05:13:48.290Z,12.83
2018-07-08T05:16:16.888Z,12.90
2018-07-08T05:18:45.468Z,15.30
2018-07-08T05:21:14.074Z,13.30
2018-07-08T05:23:42.629Z,12.10
2018-07-08T05:26:11.123Z,13.77
2018-07-08T05:28:39.637Z,18.13
2018-07-08T05:31:08.353Z,12.30
2018-07-08T05:33:36.847Z,12.03
2018-07-08T05:36:05.535Z,13.93
2018-07-08T05:38:34.034Z,12.57
2018-07-08T05:41:02.980Z,12.50
2018-07-08T05:43:31.458Z,14.97
2018-07-08T05:46:00.424Z,14.40
2018-07-08T05:48:28.616Z,17.50
2018-07-08T05:50:57.122Z,12.83
2018-07-08T05:53:25.603Z,15.67
2018-07-08T05:55:54.081Z,13.77
2018-07-08T05:58:22.544Z,13.53
2018-07-08T06:00:52.897Z,12.90
2018-07-08T06:03:21.429Z,11.00
2018-07-08T06:05:50.038Z,14.50
2018-07-08T06:08:18.503Z,10.13
2018-07-08T06:10:46.965Z,11.47
2018-07-08T06:13:15.515Z,11.93
2018-07-08T06:15:44.077Z,16.80
2018-07-08T06:18:12.608Z,10.80
2018-07-08T06:20:41.237Z,11.70
2018-07-08T06:23:09.607Z,12.33
2018-07-08T06:25:38.228Z,12.00
2018-07-08T06:28:07.140Z,9.77
2018-07-08T06:30:35.594Z,11.90
2018-07-08T06:33:04.105Z,8.40
2018-07-08T06:35:32.625Z,8.60
2018-07-08T06:38:01.213Z,9.93
2018-07-08T06:40:29.754Z,11.53
2018-07-08T06:42:58.214Z,9.23
2018-07-08T06:45:26.718Z,7.57
2018-07-08T06:47:55.180Z,6.47
2018-07-08T06:50:23.796Z,9.23
2018-07-08T06:52:52.325Z,7.60
2018-07-08T06:55:21.240Z,8.53
2018-07-08T06:57:49.781Z,13.37
2018-07-08T07:00:18.675Z,6.30
2018-07-08T07:02:48.211Z,9.00
2018-07-08T07:05:16.717Z,7.30
2018-07-08T07:07:45.837Z,7.63
2018-07-08T07:10:14.346Z,5.27
2018-07-08T07:12:43.040Z,7.50
2018-07-08T07:15:11.542Z,4.50
2018-07-08T07:17:40.054Z,7.63
2018-07-08T07:20:08.558Z,5.10
2018-07-08T07:22:37.773Z,4.70
2018-07-08T07:25:06.847Z,7.87
2018-07-08T07:27:35.333Z,7.00
2018-07-08T07:30:03.884Z,3.73
2018-07-08T07:32:32.374Z,5.17
2018-07-08T07:35:01.418Z,5.07
2018-07-08T07:37:30.025Z,11.07
2018-07-08T07:39:58.443Z,6.10
2018-07-08T07:42:27.060Z,6.77
2018-07-08T07:44:55.632Z,4.87
2018-07-08T07:47:24.882Z,6.47
2018-07-08T07:49:53.560Z,4.50
2018-07-08T07:52:22.118Z,2.80
2018-07-08T07:54:51.598Z,7.07
2018-07-08T07:57:20.677Z,3.70
2018-07-08T07:59:49.381Z,6.43
2018-07-08T08:02:17.878Z,6.23
2018-07-08T08:04:47.010Z,7.57
2018-07-08T08:07:16.485Z,4.47
2018-07-08T08:09:45.783Z,4.20
2018-07-08T08:12:14.354Z,6.13
2018-07-08T08:14:43.285Z,3.53
2018-07-08T08:17:11.800Z,7.33
2018-07-08T08:19:40.268Z,8.30
2018-07-08T08:22:08.756Z,9.13
2018-07-08T08:24:37.254Z,6.97
2018-07-08T08:27:05.786Z,4.20
2018-07-08T08:29:34.259Z,5.17
2018-07-08T08:32:03.529Z,5.30
2018-07-08T08:34:55.727Z,6.50
2018-07-08T08:37:25.601Z,4.00
2018-07-08T08:39:54.602Z,5.10
2018-07-08T08:42:23.201Z,2.97
2018-07-08T08:44:53.416Z,3.27
2018-07-08T08:47:21.881Z,3.20
2018-07-08T08:49:51.431Z,4.37
2018-07-08T08:52:20.210Z,7.90
2018-07-08T08:54:49.000Z,4.93
2018-07-08T08:57:17.542Z,4.40
2018-07-08T08:59:47.311Z,6.90
2018-07-08T09:02:15.859Z,6.03
2018-07-08T09:04:44.985Z,11.20
2018-07-08T09:07:15.150Z,4.63
2018-07-08T09:09:43.808Z,4.27
2018-07-08T09:12:13.262Z,4.37
2018-07-08T09:14:42.363Z,5.37
2018-07-08T09:17:12.144Z,5.03
2018-07-08T09:19:40.884Z,5.47
2018-07-08T09:22:10.354Z,5.93
2018-07-08T09:24:39.166Z,4.73
2018-07-08T09:27:07.837Z,4.00
2018-07-08T09:29:36.445Z,4.87
2018-07-08T09:32:04.926Z,12.50
2018-07-08T09:34:33.452Z,7.00
2018-07-08T09:37:01.983Z,4.20
2018-07-08T09:39:31.215Z,5.03
2018-07-08T09:41:59.752Z,8.70
2018-07-08T09:44:29.559Z,3.50
2018-07-08T09:46:58.147Z,4.40
2018-07-08T09:49:26.716Z,6.13
2018-07-08T09:51:55.263Z,8.70
2018-07-08T09:54:23.893Z,4.50
2018-07-08T09:56:52.563Z,8.00
2018-07-08T09:59:21.063Z,3.63
2018-07-08T10:01:50.581Z,4.90
2018-07-08T10:04:20.485Z,4.00
2018-07-08T10:06:49.805Z,7.90
2018-07-08T10:09:20.482Z,3.73
2018-07-08T10:11:49.054Z,5.30
2018-07-08T10:14:18.815Z,7.33
2018-07-08T10:16:47.425Z,4.30
2018-07-08T10:19:17.259Z,6.67
2018-07-08T10:21:45.754Z,4.50
2018-07-08T10:24:14.329Z,3.83
2018-07-08T10:26:44.165Z,4.40
2018-07-08T10:29:15.437Z,9.03
2018-07-08T10:31:49.186Z,10.97
2018-07-08T10:34:18.060Z,3.73
2018-07-08T10:36:46.828Z,5.63
2018-07-08T10:39:16.385Z,5.43
2018-07-08T10:41:44.968Z,3.73
2018-07-08T10:44:14.154Z,2.97
2018-07-08T10:46:43.298Z,6.43
2018-07-08T10:49:11.856Z,4.30
2018-07-08T10:51:40.455Z,3.57
2018-07-08T10:54:09.293Z,3.13
2018-07-08T10:56:38.538Z,7.00
2018-07-08T10:59:07.229Z,2.83
2018-07-08T11:01:35.793Z,3.40
2018-07-08T11:04:04.381Z,4.73
2018-07-08T11:06:33.359Z,3.10
2018-07-08T11:09:01.963Z,4.87
2018-07-08T11:11:30.492Z,4.83
2018-07-08T11:13:59.054Z,12.53
2018-07-08T11:16:28.481Z,5.30
2018-07-08T11:18:57.017Z,4.03
2018-07-08T11:21:25.626Z,3.70
2018-07-08T11:23:54.102Z,4.83
2018-07-08T11:26:22.644Z,3.10
2018-07-08T11:28:50.796Z,5.37
2018-07-08T11:31:20.013Z,5.13
2018-07-08T11:33:48.151Z,4.40
2018-07-08T11:36:17.177Z,5.10
2018-07-08T11:38:45.793Z,5.70
2018-07-08T11:41:14.858Z,6.37
2018-07-08T11:43:43.065Z,5.30
2018-07-08T11:46:12.216Z,5.20
2018-07-08T11:48:40.774Z,7.17
2018-07-08T11:51:09.241Z,7.93
2018-07-08T11:53:37.769Z,4.27
2018-07-08T11:56:06.320Z,5.03
2018-07-08T11:58:35.373Z,6.80
2018-07-08T12:01:04.465Z,5.27
2018-07-08T12:03:33.000Z,2.77
2018-07-08T12:06:01.625Z,3.60
2018-07-08T12:08:30.308Z,6.00
2018-07-08T12:10:58.456Z,5.13
2018-07-08T12:13:27.113Z,2.40
2018-07-08T12:15:55.653Z,3.30
2018-07-08T12:18:24.123Z,4.83
2018-07-08T12:20:52.621Z,3.97
2018-07-08T12:23:20.905Z,4.83
2018-07-08T12:25:49.477Z,2.70
2018-07-08T12:28:17.651Z,5.10
2018-07-08T12:30:45.959Z,3.67
2018-07-08T12:33:14.619Z,4.20
2018-07-08T12:35:43.104Z,4.80
2018-07-08T12:38:11.871Z,10.30
2018-07-08T12:40:40.403Z,5.67
2018-07-08T12:43:09.173Z,3.63
2018-07-08T12:45:38.167Z,5.30
2018-07-08T12:48:06.715Z,10.10
2018-07-08T12:50:35.191Z,7.03
2018-07-08T12:53:03.816Z,8.40
2018-07-08T12:55:32.968Z,3.50
2018-07-08T12:58:01.565Z,6.60
2018-07-08T13:00:30.105Z,5.13
2018-07-08T13:02:59.207Z,4.07
2018-07-08T13:05:27.743Z,3.40
2018-07-08T13:51:39.149Z,3.73
2018-07-08T13:54:07.656Z,3.30
2018-07-08T13:56:37.636Z,4.90
2018-07-08T13:59:05.880Z,2.87
2018-07-08T14:01:34.522Z,3.97
2018-07-08T14:04:03.166Z,3.70
2018-07-08T14:06:32.146Z,8.83
2018-07-08T14:09:00.636Z,4.73
2018-07-08T14:11:29.203Z,6.97
2018-07-08T14:13:57.657Z,6.73
2018-07-08T14:16:26.380Z,3.10
2018-07-08T14:18:55.004Z,5.27
2018-07-08T14:21:23.439Z,4.77
2018-07-08T14:23:52.550Z,4.70
2018-07-08T14:26:21.826Z,3.60
2018-07-08T14:28:50.333Z,6.23
2018-07-08T14:31:18.930Z,6.53
2018-07-08T14:33:47.446Z,6.60
2018-07-08T14:36:15.926Z,3.47
2018-07-08T14:38:44.396Z,2.80
2018-07-08T14:41:12.885Z,4.03
2018-07-08T14:43:41.460Z,4.57
2018-07-08T14:46:09.868Z,4.07
2018-07-08T14:48:38.393Z,2.60
2018-07-08T14:51:07.524Z,2.37
2018-07-08T14:53:35.799Z,3.83
2018-07-08T14:56:04.161Z,2.60
2018-07-08T14:58:32.776Z,6.20
2018-07-08T15:01:01.634Z,3.90
2018-07-08T15:03:31.955Z,3.67
2018-07-08T15:06:00.765Z,3.57
2018-07-08T15:08:29.693Z,3.23
2018-07-08T15:10:58.785Z,2.63
2018-07-08T15:13:27.409Z,6.93
2018-07-08T15:15:55.990Z,4.13
2018-07-08T15:18:25.046Z,2.50
2018-07-08T15:20:53.732Z,2.70
2018-07-08T15:23:22.324Z,5.00
2018-07-08T15:25:50.933Z,7.20
2018-07-08T15:28:19.482Z,3.70
2018-07-08T15:30:48.207Z,3.50
2018-07-08T15:33:16.778Z,2.77
2018-07-08T15:35:45.293Z,2.33
2018-07-08T15:38:13.830Z,4.67
2018-07-08T15:42:06.501Z,5.00
2018-07-08T15:44:35.085Z,3.17
2018-07-08T15:47:03.905Z,3.87
2018-07-08T15:49:32.489Z,2.23
2018-07-08T15:52:00.989Z,3.90
2018-07-08T15:54:29.515Z,2.23
2018-07-08T15:56:58.598Z,3.40
2018-07-08T15:59:27.928Z,4.10
2018-07-08T16:01:57.917Z,5.50
2018-07-08T16:04:26.478Z,4.53
2018-07-08T16:06:55.110Z,4.57
2018-07-08T16:09:24.265Z,2.73
2018-07-08T16:11:52.829Z,6.23
2018-07-08T16:14:21.312Z,4.13
2018-07-08T16:16:49.944Z,10.57
2018-07-08T16:19:19.501Z,1.80
2018-07-08T16:21:48.237Z,3.17
2018-07-08T16:24:17.679Z,3.67
2018-07-08T16:26:46.387Z,4.27
2018-07-08T16:29:14.965Z,2.47
2018-07-08T16:31:44.038Z,2.30
2018-07-08T16:34:13.917Z,5.90
2018-07-08T16:36:42.671Z,5.53
2018-07-08T16:39:11.277Z,4.17
2018-07-08T16:41:39.856Z,3.70
2018-07-08T16:44:08.353Z,3.77
2018-07-08T16:46:36.946Z,5.10
2018-07-08T16:49:05.497Z,2.87
2018-07-08T16:51:34.554Z,3.00
2018-07-08T16:54:03.102Z,3.10
2018-07-08T16:56:31.823Z,4.77
2018-07-08T16:59:00.318Z,3.60
2018-07-08T17:01:28.886Z,3.57
2018-07-08T17:03:57.538Z,4.40
2018-07-08T17:06:26.097Z,4.63
2018-07-08T17:08:54.309Z,3.80
2018-07-08T17:11:22.996Z,3.73
2018-07-08T17:13:51.749Z,4.07
2018-07-08T17:16:20.283Z,4.33
2018-07-08T17:18:49.034Z,2.20
2018-07-08T17:21:17.673Z,11.13
2018-07-08T17:23:46.265Z,2.60
2018-07-08T17:26:15.107Z,3.47
2018-07-08T17:28:43.666Z,2.43
2018-07-08T17:31:12.169Z,6.83
2018-07-08T17:33:41.127Z,2.20
2018-07-08T17:36:09.424Z,4.27
2018-07-08T17:38:38.465Z,2.37
2018-07-08T17:41:07.412Z,2.33
2018-07-08T17:43:36.519Z,2.77
2018-07-08T17:46:05.816Z,4.43
2018-07-08T17:48:34.394Z,1.80
2018-07-08T17:51:03.068Z,2.70
2018-07-08T17:53:31.346Z,3.50
2018-07-08T17:55:59.881Z,1.63
2018-07-08T17:58:28.488Z,1.43
2018-07-08T18:00:57.053Z,3.23
2018-07-08T18:03:25.705Z,4.20
2018-07-08T18:05:54.248Z,1.83
2018-07-08T18:08:22.844Z,3.67
2018-07-08T18:10:51.957Z,1.83
2018-07-08T18:13:20.509Z,2.87
2018-07-08T18:15:49.885Z,2.03
2018-07-08T18:18:18.472Z,2.97
2018-07-08T18:20:47.200Z,2.60
2018-07-08T18:23:15.832Z,3.50
2018-07-08T18:25:44.285Z,3.87
2018-07-08T18:28:12.461Z,2.17
2018-07-08T18:30:40.956Z,1.57
2018-07-08T18:33:09.495Z,2.57
2018-07-08T18:35:37.984Z,2.63
2018-07-08T18:38:06.523Z,3.10
2018-07-08T18:40:35.282Z,2.13
2018-07-08T18:43:05.120Z,1.47
2018-07-08T18:45:33.733Z,1.93
2018-07-08T18:48:02.217Z,3.87
2018-07-08T18:50:30.871Z,3.10
2018-07-08T18:53:00.093Z,4.33
2018-07-08T18:55:28.640Z,5.43
2018-07-08T18:57:57.177Z,1.90
2018-07-08T19:00:25.766Z,2.90
2018-07-08T19:02:54.241Z,3.50
2018-07-08T19:05:22.809Z,1.97
2018-07-08T19:07:51.402Z,1.90
2018-07-08T19:10:19.929Z,1.70
2018-07-08T19:12:48.631Z,1.50
2018-07-08T19:15:17.273Z,1.70
2018-07-08T19:17:45.828Z,2.70
2018-07-08T19:20:14.301Z,3.67
2018-07-08T19:22:42.812Z,2.13
2018-07-08T19:25:11.377Z,4.63
2018-07-08T19:27:40.893Z,2.80
2018-07-08T19:30:09.705Z,3.63
2018-07-08T19:32:39.068Z,6.20
2018-07-08T19:35:07.527Z,1.73
2018-07-08T19:37:36.243Z,4.93
2018-07-08T19:40:04.824Z,1.87
2018-07-08T19:42:33.458Z,2.97
2018-07-08T19:45:02.378Z,3.70
2018-07-08T19:47:31.361Z,3.47
2018-07-08T19:49:59.947Z,16.57
2018-07-08T19:52:28.514Z,3.33
2018-07-08T19:54:57.321Z,2.40
2018-07-08T19:57:25.794Z,2.40
2018-07-08T19:59:54.016Z,3.20
2018-07-08T20:02:22.664Z,2.17
2018-07-08T20:04:51.345Z,2.83
2018-07-08T20:07:20.144Z,3.43
2018-07-08T20:22:53.061Z,2.37
2018-07-08T20:25:22.095Z,2.63
2018-07-08T20:27:50.582Z,3.03
2018-07-08T20:30:19.077Z,2.60
2018-07-08T20:32:47.510Z,3.87
2018-07-08T20:35:16.121Z,3.43
2018-07-08T20:37:44.614Z,10.03
2018-07-08T20:40:13.098Z,2.90
2018-07-08T20:42:41.573Z,4.57
2018-07-08T20:45:10.070Z,7.23
2018-07-08T20:47:38.576Z,5.30
2018-07-08T20:50:07.061Z,2.50
2018-07-08T20:52:35.605Z,2.87
2018-07-08T20:55:04.121Z,2.90
2018-07-08T20:57:32.661Z,3.20
2018-07-08T21:00:01.153Z,2.80
2018-07-08T21:02:29.715Z,2.73
2018-07-08T21:04:58.183Z,4.40
2018-07-08T21:07:26.676Z,1.73
2018-07-08T21:09:55.106Z,5.13
2018-07-08T21:12:24.088Z,4.63
2018-07-08T21:14:52.720Z,2.10
2018-07-08T21:17:21.270Z,4.27
2018-07-08T21:19:50.029Z,2.53
2018-07-08T21:22:18.888Z,4.43
2018-07-08T21:24:47.416Z,2.13
2018-07-08T21:27:15.899Z,4.30
2018-07-08T21:29:44.538Z,3.07
2018-07-08T21:32:13.118Z,4.63
2018-07-08T21:34:41.642Z,2.60
2018-07-08T21:37:10.201Z,3.83
2018-07-08T21:39:39.386Z,2.80
2018-07-08T21:42:07.868Z,8.20
2018-07-08T21:44:36.520Z,3.03
2018-07-08T21:47:05.085Z,2.03
2018-07-08T21:49:33.622Z,4.60
2018-07-08T21:52:02.156Z,7.63
2018-07-08T21:54:30.592Z,9.10
2018-07-08T21:56:59.204Z,3.10
2018-07-08T21:59:27.849Z,4.03
2018-07-08T22:01:59.405Z,4.20
2018-07-08T22:04:27.889Z,2.20
2018-07-08T22:07:01.563Z,6.30
2018-07-08T22:09:30.032Z,2.20
2018-07-08T22:11:58.517Z,3.80
2018-07-08T22:14:27.049Z,2.20
2018-07-08T22:16:55.549Z,2.50
2018-07-08T22:19:24.920Z,2.43
2018-07-08T22:21:54.002Z,3.60
2018-07-08T22:24:22.698Z,3.77
2018-07-08T22:26:51.188Z,2.23
2018-07-08T22:29:20.337Z,2.63
2018-07-08T22:31:48.965Z,5.63
2018-07-08T22:34:17.537Z,3.50
2018-07-08T22:36:46.674Z,3.20
2018-07-08T22:39:15.634Z,2.50
2018-07-08T22:41:44.194Z,2.70
2018-07-08T22:44:12.833Z,6.73
2018-07-08T22:46:41.105Z,2.50
2018-07-08T22:49:10.304Z,3.27
2018-07-08T22:51:38.817Z,2.60
2018-07-08T22:54:07.332Z,2.30
2018-07-08T22:56:35.837Z,2.40
2018-07-08T22:59:04.297Z,2.43
2018-07-08T23:01:44.286Z,3.10
2018-07-08T23:04:13.184Z,3.33
2018-07-08T23:06:41.834Z,7.80
2018-07-08T23:09:10.335Z,4.13
2018-07-08T23:11:38.855Z,1.80
2018-07-08T23:14:07.335Z,2.40
2018-07-08T23:16:35.844Z,3.63
2018-07-08T23:19:04.336Z,4.40
2018-07-08T23:21:33.354Z,2.50
2018-07-08T23:24:01.846Z,2.53
2018-07-08T23:26:31.041Z,2.23
2018-07-08T23:28:59.701Z,3.87
2018-07-08T23:31:28.289Z,3.00
2018-07-08T23:33:56.942Z,2.90
2018-07-08T23:36:25.494Z,2.83
2018-07-08T23:38:54.186Z,6.73
2018-07-08T23:41:22.700Z,5.57
2018-07-08T23:43:51.196Z,4.33
2018-07-08T23:46:19.654Z,4.83
2018-07-08T23:48:48.164Z,2.73
2018-07-08T23:51:16.761Z,2.90
2018-07-08T23:53:45.208Z,2.73
2018-07-08T23:56:13.623Z,5.37
2018-07-08T23:58:42.194Z,6.93
